createdAt,value
2023-04-16T00:00:48.595Z,9.60
2023-04-16T00:03:53.746Z,9.95
2023-04-16T00:07:01.154Z,8.77
2023-04-16T00:10:08.434Z,10.82
2023-04-16T00:13:15.556Z,9.82
2023-04-16T00:16:17.881Z,9.05
2023-04-16T00:19:22.308Z,9.07
2023-04-16T00:22:27.366Z,10.27
2023-04-16T00:25:31.798Z,9.70
2023-04-16T00:28:36.268Z,10.00
2023-04-16T00:31:40.815Z,10.20
2023-04-16T00:34:45.568Z,10.10
2023-04-16T00:37:50.082Z,9.60
2023-04-16T00:40:54.584Z,8.55
2023-04-16T00:43:59.534Z,9.00
2023-04-16T00:47:07.750Z,9.15
2023-04-16T00:50:11.619Z,8.25
2023-04-16T00:53:15.275Z,7.45
2023-04-16T00:56:18.149Z,8.38
2023-04-16T00:59:20.972Z,8.02
2023-04-16T01:02:23.708Z,8.10
2023-04-16T01:05:28.842Z,8.15
2023-04-16T01:08:34.078Z,7.63
2023-04-16T01:11:38.494Z,7.85
2023-04-16T01:14:45.523Z,7.60
2023-04-16T01:17:48.200Z,8.10
2023-04-16T01:20:51.297Z,7.88
2023-04-16T01:23:56.237Z,8.35
2023-04-16T01:26:59.606Z,8.88
2023-04-16T01:30:04.666Z,8.23
2023-04-16T01:33:23.418Z,8.73
2023-04-16T01:36:27.434Z,8.32
2023-04-16T01:39:32.943Z,6.53
2023-04-16T01:42:35.386Z,8.48
2023-04-16T01:45:40.371Z,7.32
2023-04-16T01:48:49.839Z,7.22
2023-04-16T01:51:54.388Z,7.25
2023-04-16T01:54:56.702Z,7.43
2023-04-16T01:58:01.459Z,8.20
2023-04-16T02:01:07.902Z,7.35
2023-04-16T02:04:13.185Z,7.47
2023-04-16T02:07:17.743Z,6.82
2023-04-16T02:10:24.591Z,7.28
2023-04-16T02:13:27.140Z,6.05
2023-04-16T02:16:29.721Z,6.45
2023-04-16T02:19:39.420Z,7.20
2023-04-16T02:22:45.767Z,7.28
2023-04-16T02:25:51.678Z,6.53
2023-04-16T02:28:56.265Z,6.90
2023-04-16T02:32:03.805Z,6.90
2023-04-16T02:35:08.131Z,5.68
2023-04-16T02:38:12.672Z,6.20
2023-04-16T02:41:15.282Z,6.25
2023-04-16T02:44:17.534Z,6.47
2023-04-16T02:47:23.190Z,5.95
2023-04-16T02:50:30.429Z,6.38
2023-04-16T02:53:35.183Z,6.13
2023-04-16T02:56:37.493Z,5.60
2023-04-16T02:59:39.748Z,6.13
2023-04-16T03:02:44.676Z,7.00
2023-04-16T03:05:47.469Z,6.30
2023-04-16T03:08:49.878Z,6.18
2023-04-16T03:11:52.105Z,6.80
2023-04-16T03:14:56.458Z,6.55
2023-04-16T03:17:59.001Z,6.80
2023-04-16T03:21:01.379Z,7.45
2023-04-16T03:24:06.258Z,6.38
2023-04-16T03:27:08.661Z,7.00
2023-04-16T03:30:12.505Z,6.32
2023-04-16T03:33:20.752Z,6.07
2023-04-16T03:36:24.203Z,6.50
2023-04-16T03:39:28.752Z,7.10
2023-04-16T03:42:31.007Z,6.13
2023-04-16T03:45:36.333Z,6.70
2023-04-16T03:48:43.434Z,6.95
2023-04-16T03:51:49.127Z,7.03
2023-04-16T03:54:56.430Z,6.75
2023-04-16T03:58:07.632Z,6.80
2023-04-16T04:01:14.855Z,6.65
2023-04-16T04:04:19.866Z,6.07
2023-04-16T04:07:22.226Z,6.40
2023-04-16T04:10:26.734Z,7.15
2023-04-16T04:13:29.152Z,6.80
2023-04-16T04:16:32.452Z,6.63
2023-04-16T04:19:35.456Z,6.18
2023-04-16T04:22:38.371Z,7.50
2023-04-16T04:25:41.703Z,7.05
2023-04-16T04:28:44.223Z,7.07
2023-04-16T04:31:47.048Z,6.45
2023-04-16T04:34:51.707Z,6.15
2023-04-16T04:37:53.995Z,7.60
2023-04-16T04:40:56.816Z,6.43
2023-04-16T04:44:05.329Z,6.78
2023-04-16T04:47:07.865Z,5.97
2023-04-16T04:50:14.800Z,5.80
2023-04-16T04:53:17.018Z,6.55
2023-04-16T04:56:19.247Z,7.03
2023-04-16T04:59:21.736Z,7.35
2023-04-16T05:02:24.567Z,5.95
2023-04-16T05:05:27.075Z,6.82
2023-04-16T05:08:34.082Z,7.15
2023-04-16T05:11:42.136Z,6.10
2023-04-16T05:14:44.379Z,7.00
2023-04-16T05:17:48.917Z,6.95
2023-04-16T05:20:51.277Z,6.78
2023-04-16T05:23:53.748Z,6.13
2023-04-16T05:26:57.331Z,6.45
2023-04-16T05:29:59.634Z,5.53
2023-04-16T05:33:01.894Z,5.85
2023-04-16T05:36:06.888Z,6.47
2023-04-16T05:39:12.190Z,6.28
2023-04-16T05:42:14.558Z,5.63
2023-04-16T05:45:16.885Z,6.65
2023-04-16T05:48:20.254Z,6.10
2023-04-16T05:51:26.157Z,5.40
2023-04-16T05:54:28.415Z,5.53
2023-04-16T05:57:36.639Z,5.75
2023-04-16T06:00:39.405Z,4.72
2023-04-16T06:03:41.673Z,5.20
2023-04-16T06:06:47.710Z,5.15
2023-04-16T06:09:49.944Z,5.30
2023-04-16T06:12:52.184Z,5.18
2023-04-16T06:15:56.803Z,5.28
2023-04-16T06:18:59.309Z,5.22
2023-04-16T06:22:06.856Z,4.75
2023-04-16T06:25:09.642Z,4.95
2023-04-16T06:28:15.339Z,5.10
2023-04-16T06:31:18.703Z,5.22
2023-04-16T06:34:25.758Z,4.93
2023-04-16T06:37:30.317Z,4.47
2023-04-16T06:40:37.639Z,5.82
2023-04-16T06:43:42.950Z,6.85
2023-04-16T06:46:45.350Z,6.53
2023-04-16T06:49:49.887Z,5.85
2023-04-16T06:52:54.817Z,4.35
2023-04-16T06:55:59.863Z,5.03
2023-04-16T06:59:02.093Z,5.65
2023-04-16T07:02:10.606Z,4.88
2023-04-16T07:05:13.160Z,5.15
2023-04-16T07:08:20.269Z,5.32
2023-04-16T07:11:22.645Z,4.60
2023-04-16T07:14:24.957Z,4.60
2023-04-16T07:17:31.855Z,4.20
2023-04-16T07:20:34.214Z,4.43
2023-04-16T07:23:38.682Z,4.38
2023-04-16T07:26:43.073Z,4.25
2023-04-16T07:29:45.984Z,4.00
2023-04-16T07:32:51.661Z,4.45
2023-04-16T07:35:53.958Z,3.75
2023-04-16T07:38:56.311Z,4.63
2023-04-16T07:42:00.897Z,4.20
2023-04-16T07:45:05.635Z,4.13
2023-04-16T07:48:11.301Z,4.65
2023-04-16T07:51:14.125Z,3.63
2023-04-16T07:54:16.401Z,3.70
2023-04-16T07:57:18.682Z,3.78
2023-04-16T08:00:23.477Z,3.70
2023-04-16T08:03:27.515Z,3.70
2023-04-16T08:06:35.275Z,3.72
2023-04-16T08:09:47.988Z,4.20
2023-04-16T08:12:55.043Z,3.65
2023-04-16T08:16:04.664Z,3.45
2023-04-16T08:19:06.980Z,3.15
2023-04-16T08:22:09.410Z,3.58
2023-04-16T08:25:13.017Z,3.20
2023-04-16T08:28:20.331Z,3.03
2023-04-16T08:31:25.024Z,3.55
2023-04-16T08:34:27.353Z,3.45
2023-04-16T08:37:32.343Z,2.60
2023-04-16T08:40:44.583Z,3.13
2023-04-16T08:43:51.086Z,3.38
2023-04-16T08:47:00.602Z,3.30
2023-04-16T08:50:06.603Z,3.22
2023-04-16T08:53:16.595Z,3.33
2023-04-16T08:56:23.735Z,3.30
2023-04-16T08:59:27.045Z,3.08
2023-04-16T09:02:31.498Z,3.35
2023-04-16T09:05:34.175Z,3.70
2023-04-16T09:08:38.245Z,3.05
2023-04-16T09:11:40.628Z,3.63
2023-04-16T09:14:44.192Z,2.88
2023-04-16T09:17:46.615Z,3.35
2023-04-16T09:20:56.379Z,3.70
2023-04-16T09:24:01.995Z,2.83
2023-04-16T09:27:04.952Z,3.17
2023-04-16T09:30:27.528Z,3.45
2023-04-16T09:33:35.086Z,3.13
2023-04-16T09:36:37.478Z,2.88
2023-04-16T09:39:41.935Z,3.38
2023-04-16T09:42:44.283Z,3.13
2023-04-16T09:45:56.981Z,2.90
2023-04-16T09:49:05.628Z,3.38
2023-04-16T09:52:17.541Z,3.38
2023-04-16T09:55:27.008Z,3.55
2023-04-16T09:58:32.072Z,3.15
2023-04-16T10:01:38.771Z,3.67
2023-04-16T10:04:51.932Z,2.75
2023-04-16T10:08:00.167Z,3.03
2023-04-16T10:11:02.997Z,3.42
2023-04-16T10:14:07.525Z,2.95
2023-04-16T10:17:12.514Z,3.08
2023-04-16T10:20:18.499Z,2.72
2023-04-16T10:23:26.593Z,2.70
2023-04-16T10:26:35.819Z,2.33
2023-04-16T10:29:41.374Z,2.97
2023-04-16T10:32:49.206Z,2.60
2023-04-16T10:36:08.223Z,2.50
2023-04-16T10:39:20.156Z,2.67
2023-04-16T10:42:28.065Z,2.30
2023-04-16T10:45:32.771Z,2.33
2023-04-16T10:48:46.780Z,2.67
2023-04-16T10:52:07.550Z,2.30
2023-04-16T10:55:17.389Z,2.42
2023-04-16T10:58:30.296Z,2.33
2023-04-16T11:01:36.941Z,1.60
2023-04-16T11:04:46.730Z,1.35
2023-04-16T11:07:49.978Z,1.58
2023-04-16T11:10:53.097Z,2.03
2023-04-16T11:13:56.976Z,1.50
2023-04-16T11:17:04.946Z,1.60
2023-04-16T11:20:23.755Z,1.80
2023-04-16T11:23:29.363Z,1.50
2023-04-16T11:26:34.211Z,2.10
2023-04-16T11:29:39.100Z,1.50
2023-04-16T11:32:41.499Z,1.15
2023-04-16T11:35:45.887Z,1.40
2023-04-16T11:38:48.257Z,1.50
2023-04-16T11:41:52.508Z,1.60
2023-04-16T11:45:00.805Z,1.50
2023-04-16T11:51:05.531Z,1.65
2023-04-16T11:54:18.351Z,1.52
2023-04-16T11:57:31.074Z,1.42
2023-04-16T12:00:35.590Z,1.35
2023-04-16T12:03:44.257Z,1.60
2023-04-16T12:07:11.309Z,2.13
2023-04-16T12:10:16.129Z,1.70
2023-04-16T12:13:19.704Z,1.70
2023-04-16T12:16:22.031Z,1.60
2023-04-16T12:19:26.552Z,1.33
2023-04-16T12:22:31.982Z,1.80
2023-04-16T12:25:50.080Z,1.73
2023-04-16T12:28:52.614Z,1.70
2023-04-16T12:31:54.983Z,1.30
2023-04-16T12:34:59.842Z,1.50
2023-04-16T12:38:07.038Z,1.52
2023-04-16T12:41:09.393Z,1.70
2023-04-16T12:44:17.910Z,1.70
2023-04-16T12:47:22.725Z,1.90
2023-04-16T12:50:28.874Z,1.70
2023-04-16T12:53:34.082Z,2.17
2023-04-16T12:56:39.055Z,1.63
2023-04-16T12:59:41.284Z,1.40
2023-04-16T13:02:43.656Z,1.40
2023-04-16T13:05:46.058Z,1.60
2023-04-16T13:08:50.940Z,1.67
2023-04-16T13:11:53.235Z,1.70
2023-04-16T13:14:55.971Z,1.10
2023-04-16T13:17:58.257Z,1.52
2023-04-16T13:21:03.603Z,1.50
2023-04-16T13:24:09.056Z,1.77
2023-04-16T13:27:11.391Z,1.20
2023-04-16T13:30:13.988Z,1.13
2023-04-16T13:33:16.433Z,1.20
2023-04-16T13:36:20.981Z,1.13
2023-04-16T13:39:23.229Z,1.27
2023-04-16T13:42:28.444Z,1.30
2023-04-16T13:45:30.901Z,1.38
2023-04-16T13:48:34.018Z,1.70
2023-04-16T13:51:37.706Z,1.50
2023-04-16T13:54:43.052Z,1.20
2023-04-16T13:57:56.381Z,1.30
2023-04-16T14:00:58.806Z,1.30
2023-04-16T14:04:06.414Z,1.45
2023-04-16T14:07:09.173Z,1.13
2023-04-16T14:10:11.523Z,1.67
2023-04-16T14:13:21.095Z,1.80
2023-04-16T14:16:25.894Z,1.60
2023-04-16T14:19:28.208Z,1.48
2023-04-16T14:22:30.658Z,2.00
2023-04-16T14:25:38.244Z,1.60
2023-04-16T14:28:45.810Z,1.58
2023-04-16T14:31:50.460Z,1.85
2023-04-16T14:34:52.906Z,1.50
2023-04-16T14:37:57.185Z,1.67
2023-04-16T14:41:04.366Z,1.70
2023-04-16T14:44:06.910Z,2.00
2023-04-16T14:47:11.582Z,1.75
2023-04-16T14:50:14.310Z,1.73
2023-04-16T14:53:16.864Z,1.65
2023-04-16T14:56:21.554Z,1.30
2023-04-16T14:59:23.888Z,1.75
2023-04-16T15:02:26.380Z,1.10
2023-04-16T15:05:32.613Z,1.40
2023-04-16T15:08:37.306Z,1.05
2023-04-16T15:11:41.641Z,1.20
2023-04-16T15:14:43.864Z,1.40
2023-04-16T15:17:46.217Z,1.52
2023-04-16T15:20:48.537Z,1.40
2023-04-16T15:23:55.486Z,2.20
2023-04-16T15:26:58.192Z,1.65
2023-04-16T15:30:03.015Z,1.30
2023-04-16T15:33:05.445Z,1.40
2023-04-16T15:36:07.842Z,1.52
2023-04-16T15:39:10.882Z,1.45
2023-04-16T15:42:13.462Z,1.17
2023-04-16T15:45:15.912Z,1.55
2023-04-16T15:48:21.369Z,1.42
2023-04-16T15:51:26.788Z,1.27
2023-04-16T15:54:30.769Z,1.30
2023-04-16T15:57:35.731Z,1.33
2023-04-16T16:00:37.994Z,1.77
2023-04-16T16:03:42.812Z,0.70
2023-04-16T16:06:45.232Z,1.05
2023-04-16T16:09:48.093Z,1.23
2023-04-16T16:12:50.429Z,1.33
2023-04-16T16:15:52.779Z,1.90
2023-04-16T16:18:57.229Z,1.33
2023-04-16T16:22:01.658Z,1.50
2023-04-16T16:25:07.146Z,1.83
2023-04-16T16:28:09.369Z,1.63
2023-04-16T16:31:12.585Z,1.77
2023-04-16T16:34:20.449Z,1.55
2023-04-16T16:37:26.666Z,1.52
2023-04-16T16:43:31.623Z,1.52
2023-04-16T16:46:36.903Z,1.45
2023-04-16T16:52:44.714Z,1.70
2023-04-16T16:55:51.412Z,1.30
2023-04-16T16:59:01.847Z,1.70
2023-04-16T17:02:07.131Z,1.67
2023-04-16T17:05:09.823Z,2.08
2023-04-16T17:08:17.372Z,1.50
2023-04-16T17:11:19.768Z,1.65
2023-04-16T17:14:22.356Z,2.08
2023-04-16T17:17:25.155Z,1.58
2023-04-16T17:20:34.422Z,1.75
2023-04-16T17:23:41.239Z,1.73
2023-04-16T17:26:43.865Z,2.00
2023-04-16T17:29:46.144Z,1.83
2023-04-16T17:32:50.806Z,1.60
2023-04-16T17:35:55.419Z,1.60
2023-04-16T17:38:58.409Z,1.98
2023-04-16T17:42:03.024Z,1.67
2023-04-16T17:45:06.043Z,1.40
2023-04-16T17:48:08.375Z,1.80
2023-04-16T17:51:13.433Z,2.17
2023-04-16T17:54:15.864Z,1.95
2023-04-16T17:57:18.157Z,1.40
2023-04-16T18:00:20.432Z,1.60
2023-04-16T18:03:25.057Z,1.70
2023-04-16T18:06:27.715Z,1.70
2023-04-16T18:09:30.625Z,1.75
2023-04-16T18:12:35.125Z,2.50
2023-04-16T18:15:42.218Z,2.13
2023-04-16T18:18:45.074Z,2.63
2023-04-16T18:21:53.247Z,2.35
2023-04-16T18:24:58.166Z,1.80
2023-04-16T18:28:06.277Z,2.35
2023-04-16T18:31:11.039Z,2.22
2023-04-16T18:34:15.956Z,2.10
2023-04-16T18:37:20.993Z,2.08
2023-04-16T18:40:23.406Z,2.20
2023-04-16T18:43:28.127Z,2.03
2023-04-16T18:46:33.010Z,2.47
2023-04-16T18:49:35.373Z,2.65
2023-04-16T18:52:39.904Z,2.10
2023-04-16T18:55:44.693Z,2.40
2023-04-16T18:58:51.467Z,2.00
2023-04-16T19:01:53.828Z,2.00
2023-04-16T19:04:56.465Z,2.17
2023-04-16T19:08:00.296Z,2.03
2023-04-16T19:11:04.902Z,2.05
2023-04-16T19:14:11.110Z,1.98
2023-04-16T19:17:13.399Z,1.95
2023-04-16T19:20:18.090Z,2.38
2023-04-16T19:23:21.221Z,1.83
2023-04-16T19:26:23.508Z,1.85
2023-04-16T19:29:26.058Z,1.90
2023-04-16T19:32:31.072Z,2.22
2023-04-16T19:35:34.705Z,2.30
2023-04-16T19:38:39.100Z,1.92
2023-04-16T19:41:41.378Z,1.98
2023-04-16T19:44:43.690Z,2.75
2023-04-16T19:47:51.268Z,2.53
2023-04-16T19:50:53.949Z,2.20
2023-04-16T19:53:56.527Z,2.00
2023-04-16T19:56:58.869Z,2.20
2023-04-16T20:00:09.065Z,2.17
2023-04-16T20:03:11.365Z,2.05
2023-04-16T20:06:17.644Z,2.50
2023-04-16T20:09:22.594Z,2.00
2023-04-16T20:12:27.046Z,1.90
2023-04-16T20:15:29.333Z,2.10
2023-04-16T20:18:41.225Z,1.90
2023-04-16T20:21:45.437Z,2.10
2023-04-16T20:24:49.914Z,2.13
2023-04-16T20:27:52.184Z,1.90
2023-04-16T20:30:54.452Z,1.80
2023-04-16T20:33:59.640Z,2.03
2023-04-16T20:37:03.125Z,2.30
2023-04-16T20:40:09.402Z,1.77
2023-04-16T20:43:14.316Z,2.10
2023-04-16T20:46:18.213Z,1.90
2023-04-16T20:49:20.603Z,2.00
2023-04-16T20:52:26.464Z,1.83
2023-04-16T20:55:31.246Z,2.33
2023-04-16T20:58:38.347Z,2.03
2023-04-16T21:01:45.714Z,1.83
2023-04-16T21:04:48.226Z,2.05
2023-04-16T21:07:55.401Z,1.90
2023-04-16T21:11:00.600Z,1.85
2023-04-16T21:14:03.537Z,1.70
2023-04-16T21:17:08.269Z,2.00
2023-04-16T21:20:13.527Z,1.70
2023-04-16T21:23:15.917Z,1.95
2023-04-16T21:26:20.950Z,1.70
2023-04-16T21:29:23.310Z,1.85
2023-04-16T21:32:25.775Z,2.17
2023-04-16T21:35:28.104Z,1.92
2023-04-16T21:38:32.745Z,1.90
2023-04-16T21:41:35.027Z,2.00
2023-04-16T21:44:37.430Z,2.00
2023-04-16T21:47:44.509Z,1.90
2023-04-16T21:51:06.592Z,2.00
2023-04-16T21:54:09.124Z,2.08
2023-04-16T21:57:13.376Z,1.85
2023-04-16T22:00:15.937Z,2.10
2023-04-16T22:03:26.199Z,1.83
2023-04-16T22:06:28.977Z,1.90
2023-04-16T22:09:36.076Z,1.95
2023-04-16T22:12:42.681Z,1.80
2023-04-16T22:15:44.972Z,1.70
2023-04-16T22:18:47.482Z,1.58
2023-04-16T22:21:49.809Z,1.85
2023-04-16T22:24:52.599Z,1.85
2023-04-16T22:27:58.485Z,1.80
2023-04-16T22:31:00.775Z,1.50
2023-04-16T22:34:05.615Z,1.80
2023-04-16T22:37:08.176Z,1.75
2023-04-16T22:40:11.506Z,1.60
2023-04-16T22:43:14.082Z,2.03
2023-04-16T22:46:16.395Z,1.90
2023-04-16T22:49:18.729Z,1.70
2023-04-16T22:52:21.063Z,1.70
2023-04-16T22:55:23.513Z,1.63
2023-04-16T22:58:25.963Z,1.80
2023-04-16T23:01:30.551Z,1.70
2023-04-16T23:04:37.606Z,1.90
2023-04-16T23:07:42.164Z,1.73
2023-04-16T23:10:49.625Z,1.90
2023-04-16T23:13:51.864Z,1.60
2023-04-16T23:16:56.787Z,1.70
2023-04-16T23:19:59.059Z,1.90
2023-04-16T23:23:01.379Z,1.45
2023-04-16T23:26:05.790Z,1.60
2023-04-16T23:29:08.170Z,1.98
2023-04-16T23:32:10.456Z,1.77
2023-04-16T23:35:22.817Z,1.48
2023-04-16T23:38:29.942Z,2.00
2023-04-16T23:41:32.228Z,1.60
2023-04-16T23:44:36.901Z,1.60
2023-04-16T23:47:44.486Z,1.60
2023-04-16T23:50:46.812Z,1.90
2023-04-16T23:53:49.077Z,1.52
2023-04-16T23:56:53.818Z,1.98
2023-04-16T23:59:58.612Z,1.90
